Time;durP1;ratioP1;P1;durP2;ratioP2;P2;SDS_P1;SDS_P2;PMS_P1;PMS_P2;Temp;Humidity;BMP_temperature;BMP_pressure;BME280_temperature;BME280_humidity;BME280_pressure;Samples;Min_cycle;Max_cycle;Signal;HPM_P1;HPM_P2
2022/07/17 00:01:11;;;;;;;6.75;2.42;;;;;;;13.86;71.40;102609.59;4971830;28;20197;-73
2022/07/17 00:03:36;;;;;;;5.00;1.92;;;;;;;13.83;71.74;102612.41;4953209;28;20562;-72
2022/07/17 00:06:02;;;;;;;5.78;2.08;;;;;;;13.85;71.80;102614.03;4972183;28;20045;-71
2022/07/17 00:08:27;;;;;;;6.90;2.33;;;;;;;13.76;71.79;102618.06;4953529;28;20037;-73
2022/07/17 00:10:52;;;;;;;5.75;2.40;;;;;;;13.80;71.68;102622.25;4954995;28;20054;-71
2022/07/17 00:13:18;;;;;;;6.13;2.20;;;;;;;13.77;71.77;102617.13;4971516;28;20059;-72
2022/07/17 00:15:44;;;;;;;8.45;2.30;;;;;;;13.77;71.98;102621.56;4971023;28;20383;-71
2022/07/17 00:18:09;;;;;;;5.45;2.10;;;;;;;13.75;72.48;102621.66;4971707;28;20427;-72
2022/07/17 00:20:35;;;;;;;6.35;1.98;;;;;;;13.72;72.37;102619.19;4971116;28;20081;-71
2022/07/17 00:23:01;;;;;;;5.47;2.30;;;;;;;13.63;72.93;102625.03;4970989;28;20023;-73
2022/07/17 00:25:26;;;;;;;5.93;2.03;;;;;;;13.59;72.52;102623.47;4971040;28;20472;-73
2022/07/17 00:27:52;;;;;;;8.77;2.42;;;;;;;13.54;72.67;102628.19;4954201;28;20170;-71
2022/07/17 00:30:18;;;;;;;6.95;2.50;;;;;;;13.44;73.32;102624.38;4970418;28;20356;-72
2022/07/17 00:32:44;;;;;;;9.15;2.50;;;;;;;13.41;73.29;102627.22;4971519;28;20057;-72
2022/07/17 00:35:10;;;;;;;4.88;2.30;;;;;;;13.42;72.91;102627.13;4953841;28;20118;-72
2022/07/17 00:37:44;;;;;;;5.25;2.33;;;;;;;13.41;73.52;102627.22;4960774;28;20447;-71
2022/07/17 00:40:12;;;;;;;8.88;2.72;;;;;;;13.27;74.11;102627.16;4952126;29;20387;-72
2022/07/17 00:42:41;;;;;;;10.13;2.95;;;;;;;13.30;73.99;102624.34;4951174;29;20027;-71
2022/07/17 00:45:08;;;;;;;7.30;2.70;;;;;;;13.29;74.28;102630.56;4951233;29;20031;-71
2022/07/17 00:47:49;;;;;;;5.55;2.50;;;;;;;13.13;74.70;102634.00;4951278;29;20101;-71
2022/07/17 00:50:18;;;;;;;7.22;2.65;;;;;;;13.12;74.66;102627.03;4951734;29;20055;-72
2022/07/17 00:52:44;;;;;;;6.63;2.50;;;;;;;13.12;74.83;102636.75;4950811;29;20027;-73
2022/07/17 00:55:11;;;;;;;6.90;2.80;;;;;;;13.13;74.78;102628.72;4951900;29;20026;-71
2022/07/17 00:57:40;;;;;;;8.43;2.70;;;;;;;13.08;75.10;102627.28;4963259;28;20026;-73
2022/07/17 01:00:10;;;;;;;9.25;3.45;;;;;;;13.06;75.35;102623.88;4971071;28;20120;-73
2022/07/17 01:02:36;;;;;;;6.18;2.67;;;;;;;12.96;75.26;102625.34;4971857;28;20495;-72
2022/07/17 01:05:01;;;;;;;5.68;2.67;;;;;;;12.89;75.23;102619.53;4974832;28;20027;-72
2022/07/17 01:07:26;;;;;;;5.40;2.83;;;;;;;12.85;75.85;102620.66;4974935;28;20014;-72
2022/07/17 01:09:52;;;;;;;8.77;2.97;;;;;;;12.83;75.96;102610.16;4975509;28;20391;-73
2022/07/17 01:12:17;;;;;;;6.57;2.85;;;;;;;12.78;75.83;102612.19;4973745;28;20059;-72
2022/07/17 01:14:44;;;;;;;5.10;2.40;;;;;;;12.78;76.00;102614.81;4975171;28;20051;-72
2022/07/17 01:17:11;;;;;;;6.32;2.70;;;;;;;12.72;76.45;102611.69;4974962;28;20026;-72
2022/07/17 01:19:36;;;;;;;6.15;2.60;;;;;;;12.66;76.66;102619.94;4973544;28;20157;-72
2022/07/17 01:22:02;;;;;;;7.40;2.60;;;;;;;12.63;76.34;102620.09;4957704;28;20030;-72
2022/07/17 01:24:27;;;;;;;4.43;2.60;;;;;;;12.62;76.58;102618.41;4974108;28;20026;-72
2022/07/17 01:26:52;;;;;;;10.48;3.03;;;;;;;12.49;76.63;102611.16;4974241;28;20154;-73
2022/07/17 01:29:18;;;;;;;7.18;2.88;;;;;;;12.49;76.89;102613.78;4974426;28;20434;-72
2022/07/17 01:31:44;;;;;;;6.35;2.50;;;;;;;12.41;77.13;102613.34;4974874;28;20222;-71
2022/07/17 01:34:12;;;;;;;5.40;2.60;;;;;;;12.35;77.62;102605.72;4974152;28;20023;-72
2022/07/17 01:36:38;;;;;;;8.60;2.58;;;;;;;12.33;77.54;102599.69;4972872;28;20022;-72
2022/07/17 01:39:04;;;;;;;8.27;2.80;;;;;;;12.32;77.56;102597.13;4955516;29;20034;-72
2022/07/17 01:41:30;;;;;;;9.25;2.92;;;;;;;12.35;77.33;102608.38;4953907;29;20058;-71
2022/07/17 01:43:56;;;;;;;6.20;2.72;;;;;;;12.32;77.73;102600.63;4955762;29;20057;-72
2022/07/17 01:46:21;;;;;;;6.90;2.65;;;;;;;12.25;77.50;102607.16;4955154;29;20024;-73
2022/07/17 01:48:46;;;;;;;6.38;2.75;;;;;;;12.31;77.50;102606.84;4937080;29;20055;-72
2022/07/17 01:51:12;;;;;;;7.80;2.80;;;;;;;12.25;77.89;102615.06;4955061;29;20122;-73
2022/07/17 01:53:37;;;;;;;8.45;3.20;;;;;;;12.25;77.28;102615.06;4952809;29;20369;-74
2022/07/17 01:56:03;;;;;;;7.45;3.13;;;;;;;12.19;78.21;102610.13;4954657;28;20067;-72
2022/07/17 01:58:28;;;;;;;6.40;3.22;;;;;;;12.15;78.10;102609.44;4972247;28;20434;-73
2022/07/17 02:00:54;;;;;;;6.50;3.05;;;;;;;12.09;78.51;102612.41;4973136;28;20069;-72
2022/07/17 02:03:21;;;;;;;5.55;2.88;;;;;;;12.09;78.74;102622.97;4973503;28;20062;-73
2022/07/17 02:05:46;;;;;;;5.25;2.80;;;;;;;12.05;78.29;102624.06;4973719;28;20081;-73
2022/07/17 02:08:12;;;;;;;7.68;2.95;;;;;;;12.02;78.49;102628.63;4972197;28;20102;-72
2022/07/17 02:10:37;;;;;;;7.63;3.00;;;;;;;11.95;78.62;102625.44;4955715;28;20044;-73
2022/07/17 02:13:03;;;;;;;8.13;2.92;;;;;;;11.88;79.20;102617.00;4972636;28;20034;-72
2022/07/17 02:15:29;;;;;;;11.43;3.17;;;;;;;11.82;79.23;102617.31;4972382;28;20035;-72
2022/07/17 02:17:54;;;;;;;8.00;3.28;;;;;;;11.84;79.64;102615.44;4973799;28;20075;-73
2022/07/17 02:20:20;;;;;;;8.13;3.10;;;;;;;11.76;79.95;102622.84;4973087;28;20026;-72
2022/07/17 02:22:45;;;;;;;7.43;3.20;;;;;;;11.78;79.31;102613.13;4972629;28;20030;-73
2022/07/17 02:25:11;;;;;;;8.13;3.08;;;;;;;11.77;79.39;102621.06;4973412;28;20046;-73
2022/07/17 02:27:38;;;;;;;6.65;3.33;;;;;;;11.72;79.82;102626.59;4972748;28;20046;-73
2022/07/17 02:30:06;;;;;;;8.55;3.50;;;;;;;11.63;79.86;102619.13;4972791;28;20026;-73
2022/07/17 02:32:31;;;;;;;8.55;3.40;;;;;;;11.69;79.86;102610.06;4955554;28;20042;-72
2022/07/17 02:34:56;;;;;;;12.05;3.50;;;;;;;11.67;80.28;102615.41;4974370;28;20379;-73
2022/07/17 02:37:22;;;;;;;6.78;3.35;;;;;;;11.63;79.76;102619.13;4955261;28;20023;-73
2022/07/17 02:39:53;;;;;;;7.53;2.95;;;;;;;11.59;80.21;102620.19;4973897;28;20395;-72
2022/07/17 02:42:20;;;;;;;6.78;3.60;;;;;;;11.54;79.94;102614.31;4973033;28;20106;-73
2022/07/17 02:44:46;;;;;;;8.25;3.22;;;;;;;11.52;80.76;102614.38;4972913;28;20157;-73
2022/07/17 02:47:12;;;;;;;5.65;3.28;;;;;;;11.47;80.54;102605.84;4973697;28;20105;-73
2022/07/17 02:49:38;;;;;;;6.50;3.78;;;;;;;11.51;81.04;102607.41;4973092;28;20031;-72
2022/07/17 02:52:03;;;;;;;8.23;3.40;;;;;;;11.48;80.48;102607.56;4972847;28;20645;-72
2022/07/17 02:54:29;;;;;;;10.77;3.35;;;;;;;11.48;80.46;102601.44;4971353;28;20058;-73
2022/07/17 02:56:54;;;;;;;8.18;3.58;;;;;;;11.45;80.62;102606.84;4946560;29;20364;-73
2022/07/17 02:59:19;;;;;;;8.40;3.60;;;;;;;11.44;80.46;102602.50;4951993;29;20115;-73
2022/07/17 03:01:44;;;;;;;6.93;3.70;;;;;;;11.37;80.76;102611.66;4955505;28;20043;-73
2022/07/17 03:04:10;;;;;;;6.72;3.30;;;;;;;11.40;80.46;102615.00;4953476;29;20083;-73
2022/07/17 03:06:35;;;;;;;8.45;3.35;;;;;;;11.38;80.53;102616.84;4954185;29;20499;-72
2022/07/17 03:09:00;;;;;;;9.82;3.90;;;;;;;11.38;80.92;102622.13;4937327;29;20035;-73
2022/07/17 03:11:26;;;;;;;10.38;3.28;;;;;;;11.40;80.89;102619.41;4953778;29;20023;-72
2022/07/17 03:13:51;;;;;;;6.75;3.47;;;;;;;11.38;81.14;102626.53;4954870;29;20027;-73
2022/07/17 03:16:16;;;;;;;7.90;3.60;;;;;;;11.38;80.52;102631.81;4953930;29;20511;-72
2022/07/17 03:18:42;;;;;;;9.80;3.78;;;;;;;11.23;81.42;102636.06;4936284;29;20059;-73
2022/07/17 03:21:07;;;;;;;7.95;3.50;;;;;;;11.23;81.23;102630.78;4954457;29;20113;-73
2022/07/17 03:23:32;;;;;;;9.25;3.97;;;;;;;11.22;82.02;102637.84;4953229;29;20027;-72
2022/07/17 03:25:58;;;;;;;7.90;3.50;;;;;;;11.17;81.21;102629.25;4952048;28;20023;-73
2022/07/17 03:28:23;;;;;;;8.48;3.35;;;;;;;11.17;81.70;102616.09;4936456;29;20020;-73
2022/07/17 03:30:48;;;;;;;10.45;3.47;;;;;;;11.16;82.04;102624.94;4953692;29;20110;-72
2022/07/17 03:33:14;;;;;;;6.30;3.50;;;;;;;11.16;82.10;102622.28;4935045;29;20031;-72
2022/07/17 03:35:39;;;;;;;9.90;3.40;;;;;;;11.11;81.49;102621.66;4952488;29;20087;-72
2022/07/17 03:38:04;;;;;;;8.10;3.25;;;;;;;11.13;81.72;102622.44;4966132;28;20423;-73
2022/07/17 03:40:30;;;;;;;8.45;3.50;;;;;;;11.16;81.45;102622.28;4953495;28;20391;-72
2022/07/17 03:42:58;;;;;;;8.05;3.55;;;;;;;11.09;81.96;102622.66;4972343;28;20423;-73
2022/07/17 03:45:23;;;;;;;10.02;3.60;;;;;;;11.07;81.54;102617.47;4954016;28;20448;-72
2022/07/17 03:47:48;;;;;;;10.05;3.58;;;;;;;11.13;81.94;102622.44;4971543;28;20103;-72
2022/07/17 03:50:14;;;;;;;7.00;3.70;;;;;;;11.12;81.73;102620.72;4972095;28;20172;-73
2022/07/17 03:52:39;;;;;;;7.65;3.63;;;;;;;11.06;81.72;102618.41;4953367;28;20073;-73
2022/07/17 03:55:05;;;;;;;7.18;3.65;;;;;;;11.09;81.61;102620.88;4952827;28;20125;-73
2022/07/17 03:57:30;;;;;;;8.80;3.85;;;;;;;11.07;82.06;102625.38;4939727;29;20027;-72
2022/07/17 03:59:55;;;;;;;8.30;3.95;;;;;;;11.10;81.58;102622.59;4952060;29;20105;-72
2022/07/17 04:02:21;;;;;;;9.52;3.83;;;;;;;11.03;81.60;102625.59;4934610;29;20023;-72
2022/07/17 04:04:46;;;;;;;9.15;3.75;;;;;;;11.08;81.46;102629.72;4952689;29;20034;-72
2022/07/17 04:07:26;;;;;;;10.90;4.35;;;;;;;11.01;82.44;102632.72;4952930;29;20069;-71
2022/07/17 04:09:53;;;;;;;7.65;4.10;;;;;;;10.96;82.18;102636.41;4953274;29;20055;-72
2022/07/17 04:12:18;;;;;;;8.68;3.92;;;;;;;10.98;82.49;102634.56;4952276;29;20413;-72
2022/07/17 04:14:43;;;;;;;9.82;4.07;;;;;;;11.10;81.92;102638.41;4952100;29;20035;-72
2022/07/17 04:17:08;;;;;;;7.30;3.92;;;;;;;11.18;81.79;102641.50;4952945;29;20150;-71
2022/07/17 04:19:34;;;;;;;7.60;3.83;;;;;;;11.48;81.33;102641.81;4952150;29;20102;-71
2022/07/17 04:21:59;;;;;;;9.48;3.90;;;;;;;11.89;79.93;102646.84;4952188;29;20027;-71
2022/07/17 04:24:24;;;;;;;6.57;3.58;;;;;;;12.20;77.80;102648.78;4952454;29;20027;-72
2022/07/17 04:26:50;;;;;;;9.15;3.40;;;;;;;12.35;76.87;102647.97;4935402;29;20026;-72
2022/07/17 04:29:18;;;;;;;9.98;3.85;;;;;;;12.19;77.33;102641.78;4934617;29;20042;-71
2022/07/17 04:31:43;;;;;;;7.70;3.80;;;;;;;12.18;77.68;102640.94;4952588;29;20034;-72
2022/07/17 04:34:09;;;;;;;12.02;3.75;;;;;;;12.09;77.72;102641.44;4935361;29;20023;-72
2022/07/17 04:36:35;;;;;;;9.25;3.50;;;;;;;12.11;78.19;102649.25;4951692;28;20514;-72
2022/07/17 04:39:00;;;;;;;7.63;3.53;;;;;;;12.04;78.49;102645.25;4971784;28;20027;-73
2022/07/17 04:41:25;;;;;;;11.82;3.63;;;;;;;12.07;78.45;102634.53;4971060;28;20023;-72
2022/07/17 04:43:51;;;;;;;13.65;4.07;;;;;;;11.96;78.67;102636.84;4971321;28;20030;-71
2022/07/17 04:46:16;;;;;;;8.02;3.80;;;;;;;11.99;79.25;102628.75;4954004;28;20027;-74
2022/07/17 04:48:41;;;;;;;12.45;4.00;;;;;;;11.81;79.47;102643.75;4971812;28;20027;-71
2022/07/17 04:51:07;;;;;;;15.07;4.20;;;;;;;11.81;80.56;102641.97;4968834;28;20365;-73
2022/07/17 04:53:33;;;;;;;8.52;3.92;;;;;;;11.78;80.85;102647.41;4950120;29;20544;-72
2022/07/17 04:55:59;;;;;;;10.32;4.32;;;;;;;11.81;81.08;102652.53;4933691;29;20054;-72
2022/07/17 04:58:24;;;;;;;9.55;4.38;;;;;;;11.83;81.37;102650.66;4950049;29;20106;-72
2022/07/17 05:00:49;;;;;;;10.65;4.15;;;;;;;11.84;81.50;102656.78;4952024;28;20075;-72
2022/07/17 05:03:17;;;;;;;14.05;5.15;;;;;;;11.78;82.37;102659.72;4952426;29;20602;-72
2022/07/17 05:05:43;;;;;;;13.00;4.20;;;;;;;11.82;82.31;102664.78;4934465;29;20454;-72
2022/07/17 05:08:08;;;;;;;12.45;4.70;;;;;;;11.78;82.57;102657.94;4952295;29;20111;-73
2022/07/17 05:10:33;;;;;;;16.15;4.82;;;;;;;11.78;82.93;102655.31;4933999;29;20031;-71
2022/07/17 05:12:59;;;;;;;14.93;4.72;;;;;;;11.82;83.34;102659.50;4953553;29;20110;-73
2022/07/17 05:15:24;;;;;;;15.85;5.20;;;;;;;11.86;82.97;102654.91;4951449;29;20023;-71
2022/07/17 05:17:49;;;;;;;12.27;4.90;;;;;;;11.89;82.79;102655.63;4934304;29;20027;-71
2022/07/17 05:20:17;;;;;;;15.48;5.13;;;;;;;11.93;83.29;102646.63;4952044;29;20027;-72
2022/07/17 05:22:43;;;;;;;13.48;5.20;;;;;;;11.99;83.06;102645.44;4952563;29;20608;-71
2022/07/17 05:25:08;;;;;;;12.32;4.80;;;;;;;12.10;82.87;102642.28;4934102;29;20019;-72
2022/07/17 05:27:34;;;;;;;8.38;4.38;;;;;;;12.20;82.81;102654.06;4952234;29;20034;-72
2022/07/17 05:29:59;;;;;;;8.25;4.55;;;;;;;12.33;82.29;102643.72;4951570;29;20479;-72
2022/07/17 05:32:25;;;;;;;8.35;4.63;;;;;;;12.45;82.28;102646.56;4933902;29;20411;-72
2022/07/17 05:34:50;;;;;;;9.80;4.88;;;;;;;12.56;81.77;102646.00;4951766;29;20027;-73
2022/07/17 05:37:16;;;;;;;6.93;4.30;;;;;;;12.66;81.34;102651.63;4934567;29;20038;-72
2022/07/17 05:39:41;;;;;;;12.65;4.70;;;;;;;12.81;81.21;102656.09;4951420;28;20031;-74
2022/07/17 05:42:07;;;;;;;14.90;4.50;;;;;;;12.90;80.18;102660.88;4951873;28;20019;-73
2022/07/17 05:44:32;;;;;;;10.45;4.13;;;;;;;13.03;78.89;102648.69;4951154;29;20040;-72
2022/07/17 05:46:57;;;;;;;9.88;4.68;;;;;;;13.17;76.67;102646.16;4951078;29;20391;-72
2022/07/17 05:49:23;;;;;;;11.93;4.50;;;;;;;13.27;76.72;102648.31;4953515;28;20472;-73
2022/07/17 05:51:48;;;;;;;18.52;4.22;;;;;;;13.34;76.17;102654.94;4937964;29;20607;-73
2022/07/17 05:54:13;;;;;;;8.85;3.75;;;;;;;13.46;76.84;102655.09;4936197;29;20059;-72
2022/07/17 05:56:39;;;;;;;12.02;4.07;;;;;;;13.47;75.52;102643.56;4959003;28;20027;-72
2022/07/17 05:59:04;;;;;;;8.93;4.05;;;;;;;13.61;75.44;102652.50;4973268;28;20027;-72
2022/07/17 06:01:30;;;;;;;9.40;3.75;;;;;;;13.73;75.46;102657.09;4955850;28;20140;-71
2022/07/17 06:03:55;;;;;;;15.05;4.75;;;;;;;13.69;74.04;102650.28;4974585;28;20027;-72
2022/07/17 06:06:21;;;;;;;11.43;4.60;;;;;;;13.69;74.05;102645.84;4974074;28;20027;-71
2022/07/17 06:08:46;;;;;;;10.35;4.35;;;;;;;13.75;74.51;102629.59;4973665;28;20149;-71
2022/07/17 06:11:12;;;;;;;10.88;4.50;;;;;;;13.88;74.75;102623.56;4974483;28;20027;-72
2022/07/17 06:13:37;;;;;;;10.27;4.40;;;;;;;13.96;74.34;102614.22;4974116;28;20063;-71
2022/07/17 06:16:03;;;;;;;10.80;5.10;;;;;;;14.00;74.88;102623.69;4973436;28;20439;-72
2022/07/17 06:18:28;;;;;;;9.45;4.50;;;;;;;14.11;73.76;102623.91;4956167;28;20041;-72
2022/07/17 06:20:54;;;;;;;17.20;5.15;;;;;;;14.22;74.14;102617.97;4974322;28;20029;-71
2022/07/17 06:23:19;;;;;;;10.63;4.70;;;;;;;14.31;73.05;102622.69;4973263;28;20054;-71
2022/07/17 06:25:44;;;;;;;11.73;5.03;;;;;;;14.40;72.26;102619.47;4974236;28;20284;-71
2022/07/17 06:28:10;;;;;;;9.98;5.00;;;;;;;14.48;72.78;102628.78;4973671;28;20062;-71
2022/07/17 06:30:35;;;;;;;7.88;5.20;;;;;;;14.47;72.88;102633.25;4973482;28;20083;-71
2022/07/17 06:33:00;;;;;;;10.18;5.35;;;;;;;14.57;72.64;102639.66;4973972;28;20041;-72
2022/07/17 06:35:25;;;;;;;10.52;5.45;;;;;;;14.55;71.94;102643.34;4972720;28;20041;-71
2022/07/17 06:37:51;;;;;;;7.70;5.45;;;;;;;14.66;72.46;102647.03;4962861;28;20506;-71
2022/07/17 06:40:16;;;;;;;11.95;5.28;;;;;;;14.73;72.35;102651.00;4954047;29;20574;-72
2022/07/17 06:42:42;;;;;;;10.23;5.93;;;;;;;14.76;72.20;102649.09;4954021;29;20027;-73
2022/07/17 06:45:07;;;;;;;10.65;5.53;;;;;;;14.77;71.64;102653.44;4954484;29;20102;-74
2022/07/17 06:47:33;;;;;;;13.15;6.00;;;;;;;14.81;70.91;102662.91;4954000;29;20031;-72
2022/07/17 06:49:58;;;;;;;11.07;5.45;;;;;;;14.85;71.94;102654.69;4936163;29;20038;-73
2022/07/17 06:52:23;;;;;;;10.57;5.20;;;;;;;15.01;72.12;102668.66;4936248;29;20027;-73
2022/07/17 06:54:49;;;;;;;10.70;5.43;;;;;;;15.07;71.10;102658.63;4954057;29;20023;-72
2022/07/17 06:57:14;;;;;;;8.43;5.15;;;;;;;15.14;70.86;102666.06;4944979;28;20498;-72
2022/07/17 06:59:40;;;;;;;12.90;5.93;;;;;;;15.29;70.32;102665.09;4971630;28;20043;-74
2022/07/17 07:02:06;;;;;;;8.60;4.88;;;;;;;15.40;70.11;102672.38;4973276;28;20106;-70
2022/07/17 07:04:31;;;;;;;10.25;5.35;;;;;;;15.51;68.85;102674.31;4972377;28;20039;-71
2022/07/17 07:06:56;;;;;;;9.63;5.20;;;;;;;15.69;68.47;102674.94;4973344;28;20022;-71
2022/07/17 07:09:22;;;;;;;12.88;5.00;;;;;;;15.90;68.49;102676.16;4972782;28;20498;-74
2022/07/17 07:11:47;;;;;;;11.07;5.20;;;;;;;16.14;67.95;102671.84;4972682;28;20034;-73
2022/07/17 07:14:12;;;;;;;13.13;4.72;;;;;;;16.24;64.53;102683.53;4973059;28;20038;-72
2022/07/17 07:16:38;;;;;;;11.15;5.20;;;;;;;16.56;65.07;102676.00;4972197;28;20046;-72
2022/07/17 07:19:03;;;;;;;10.43;5.28;;;;;;;16.84;66.16;102685.56;4972120;28;20023;-72
2022/07/17 07:21:29;;;;;;;12.93;5.20;;;;;;;17.11;65.09;102693.38;4972226;28;20029;-72
2022/07/17 07:23:54;;;;;;;51.53;6.95;;;;;;;17.33;64.02;102690.00;4973127;28;20027;-71
2022/07/17 07:26:20;;;;;;;18.30;4.63;;;;;;;17.66;62.41;102684.00;4971458;28;20027;-71
2022/07/17 07:28:45;;;;;;;12.75;4.30;;;;;;;18.03;61.13;102687.44;4955515;28;20550;-73
2022/07/17 07:31:10;;;;;;;15.52;4.05;;;;;;;18.01;59.61;102684.06;4972696;28;20074;-73
2022/07/17 07:33:37;;;;;;;9.15;3.20;;;;;;;18.36;59.59;102675.13;4971448;28;20038;-71
2022/07/17 07:36:03;;;;;;;10.50;3.58;;;;;;;18.60;58.42;102665.22;4955277;28;20544;-71
2022/07/17 07:38:28;;;;;;;9.82;3.70;;;;;;;18.88;58.13;102668.41;4938323;29;20060;-72
2022/07/17 07:40:53;;;;;;;11.85;3.65;;;;;;;19.17;57.78;102660.69;4953349;29;20027;-72
2022/07/17 07:43:19;;;;;;;9.32;3.65;;;;;;;19.40;56.74;102675.69;4952556;29;20039;-72
2022/07/17 07:45:44;;;;;;;9.10;3.70;;;;;;;19.20;55.87;102677.31;4952591;29;20027;-72
2022/07/17 07:48:09;;;;;;;8.02;3.45;;;;;;;19.46;56.89;102671.66;4935588;29;20031;-72
2022/07/17 07:50:35;;;;;;;12.75;3.75;;;;;;;19.67;56.15;102683.28;4935248;29;20043;-74
2022/07/17 07:53:00;;;;;;;14.10;4.20;;;;;;;19.78;55.29;102685.91;4934402;29;20033;-74
2022/07/17 07:55:25;;;;;;;15.23;3.70;;;;;;;19.88;54.59;102676.13;4951488;29;20562;-74
2022/07/17 07:58:12;;;;;;;8.75;3.47;;;;;;;20.05;56.30;102673.88;4949330;28;20058;-72
2022/07/17 08:00:40;;;;;;;8.38;3.42;;;;;;;20.14;53.97;102676.59;4970593;28;20145;-71
2022/07/17 08:03:06;;;;;;;9.07;3.20;;;;;;;20.30;52.94;102678.78;4972100;28;20042;-72
2022/07/17 08:05:33;;;;;;;9.75;2.67;;;;;;;20.42;51.52;102675.13;4971600;28;20046;-73
2022/07/17 08:07:58;;;;;;;9.43;2.65;;;;;;;20.42;52.15;102682.28;4971578;28;20025;-73
2022/07/17 08:10:24;;;;;;;6.13;2.75;;;;;;;20.62;51.44;102673.38;4971824;28;20405;-72
2022/07/17 08:12:50;;;;;;;6.22;2.42;;;;;;;20.79;50.44;102679.91;4971999;28;20030;-72
2022/07/17 08:15:20;;;;;;;8.25;2.75;;;;;;;20.93;50.44;102683.06;4971825;28;20483;-73
2022/07/17 08:17:47;;;;;;;7.53;2.50;;;;;;;21.15;50.70;102691.84;4954629;28;20125;-73
2022/07/17 08:20:14;;;;;;;8.80;2.78;;;;;;;21.28;51.12;102684.44;4972217;28;20026;-72
2022/07/17 08:22:40;;;;;;;9.40;2.92;;;;;;;21.26;48.36;102687.25;4970833;28;20077;-72
2022/07/17 08:25:06;;;;;;;7.57;2.60;;;;;;;21.09;49.07;102689.72;4972432;28;20023;-71
2022/07/17 08:27:40;;;;;;;8.98;2.47;;;;;;;21.13;50.27;102681.25;4971817;28;20094;-72
2022/07/17 08:30:08;;;;;;;6.60;2.15;;;;;;;21.16;49.13;102683.66;4971489;28;20106;-71
2022/07/17 08:32:34;;;;;;;8.75;2.60;;;;;;;21.21;49.76;102678.78;4971856;28;20022;-72
2022/07/17 08:34:59;;;;;;;10.38;2.72;;;;;;;21.39;49.85;102684.31;4971620;28;20539;-73
2022/07/17 08:37:25;;;;;;;6.95;2.10;;;;;;;21.39;47.94;102680.78;4963928;28;20543;-71
2022/07/17 08:39:51;;;;;;;7.28;2.13;;;;;;;21.45;47.60;102680.22;4952839;29;20033;-72
2022/07/17 08:42:16;;;;;;;7.13;2.15;;;;;;;21.68;47.67;102676.31;4951571;29;20023;-71
2022/07/17 08:44:42;;;;;;;5.35;1.75;;;;;;;22.07;47.24;102673.63;4952508;29;20031;-71
2022/07/17 08:47:10;;;;;;;4.95;2.17;;;;;;;21.93;45.37;102671.31;4952231;29;20047;-73
2022/07/17 08:49:46;;;;;;;9.13;2.05;;;;;;;22.27;46.61;102672.56;4934170;29;20331;-74
2022/07/17 08:52:13;;;;;;;8.50;2.58;;;;;;;22.24;46.08;102678.22;4952303;29;20038;-73
2022/07/17 08:54:38;;;;;;;8.00;2.10;;;;;;;22.79;45.39;102663.03;4951733;29;20118;-73
2022/07/17 08:57:04;;;;;;;5.68;2.38;;;;;;;22.65;45.90;102660.84;4960452;28;20109;-73
2022/07/17 08:59:30;;;;;;;8.30;2.20;;;;;;;22.65;45.32;102660.00;4970857;28;20029;-73
2022/07/17 09:01:55;;;;;;;6.90;2.22;;;;;;;22.59;45.22;102660.59;4954796;28;20027;-73
2022/07/17 09:04:21;;;;;;;5.13;2.05;;;;;;;22.78;44.80;102668.56;4970769;28;20030;-73
2022/07/17 09:06:46;;;;;;;5.20;2.20;;;;;;;22.57;43.83;102662.59;4971603;28;20106;-73
2022/07/17 09:09:14;;;;;;;6.30;2.15;;;;;;;22.62;44.06;102671.03;4971243;28;20113;-72
2022/07/17 09:11:50;;;;;;;6.07;2.00;;;;;;;22.62;43.79;102668.34;4969955;28;20034;-72
2022/07/17 09:14:20;;;;;;;6.50;1.70;;;;;;;22.61;44.72;102663.97;4971488;28;20306;-71
2022/07/17 09:16:57;;;;;;;6.95;2.08;;;;;;;22.85;44.98;102663.50;4971241;28;20199;-73
2022/07/17 09:19:31;;;;;;;4.55;1.83;;;;;;;22.69;43.11;102656.03;4970633;28;20027;-74
2022/07/17 09:22:26;;;;;;;5.28;1.80;;;;;;;22.92;45.86;102657.38;4971174;28;20030;-74
2022/07/17 09:24:52;;;;;;;5.10;1.88;;;;;;;23.13;44.25;102662.44;4965327;28;20038;-74
2022/07/17 09:27:23;;;;;;;6.22;1.88;;;;;;;22.74;45.43;102664.47;4974446;28;20520;-74
2022/07/17 09:29:59;;;;;;;5.18;2.00;;;;;;;22.66;44.75;102662.53;4975087;28;20506;-72
2022/07/17 09:32:29;;;;;;;4.80;1.98;;;;;;;22.81;45.77;102660.22;4973970;28;20030;-72
2022/07/17 09:34:59;;;;;;;5.43;1.80;;;;;;;22.84;42.88;102664.47;4975324;28;20018;-74
2022/07/17 09:37:26;;;;;;;4.50;1.60;;;;;;;23.12;44.45;102664.28;4967108;28;20027;-73
2022/07/17 09:39:55;;;;;;;7.45;1.95;;;;;;;23.11;42.35;102657.22;4955005;28;20035;-72
2022/07/17 09:42:26;;;;;;;7.60;1.88;;;;;;;23.29;43.74;102659.94;4955308;29;20034;-72
2022/07/17 09:45:10;;;;;;;3.75;1.30;;;;;;;23.44;41.97;102662.94;4955682;29;20039;-72
2022/07/17 09:47:38;;;;;;;3.47;1.38;;;;;;;23.40;40.03;102659.72;4955027;29;20090;-73
2022/07/17 09:50:06;;;;;;;5.05;1.80;;;;;;;23.40;39.88;102657.03;4955366;29;20031;-73
2022/07/17 09:52:36;;;;;;;3.55;1.40;;;;;;;23.55;38.74;102654.66;4954082;29;20063;-71
2022/07/17 09:55:03;;;;;;;3.67;1.40;;;;;;;23.81;39.39;102653.88;4955175;29;20031;-71
2022/07/17 09:57:32;;;;;;;5.78;2.13;;;;;;;23.76;39.62;102651.66;4967042;28;20031;-74
2022/07/17 10:00:15;;;;;;;4.80;1.42;;;;;;;23.61;39.13;102655.88;4973484;28;20480;-73
2022/07/17 10:02:44;;;;;;;5.00;1.33;;;;;;;23.59;38.70;102655.19;4956128;28;20038;-73
2022/07/17 10:05:11;;;;;;;5.00;1.50;;;;;;;23.68;39.75;102660.50;4974358;28;20034;-73
2022/07/17 10:07:40;;;;;;;3.35;1.10;;;;;;;24.04;37.65;102655.06;4972984;28;20041;-73
2022/07/17 10:10:07;;;;;;;7.28;1.50;;;;;;;24.19;40.10;102658.88;4974404;28;20027;-73
2022/07/17 10:12:34;;;;;;;2.78;1.10;;;;;;;24.41;39.77;102651.28;4973934;28;20023;-71
2022/07/17 10:14:59;;;;;;;5.63;1.50;;;;;;;24.74;38.09;102655.81;4956124;28;20125;-73
2022/07/17 10:17:25;;;;;;;6.80;1.48;;;;;;;24.83;37.07;102652.16;4974114;28;20106;-72
2022/07/17 10:19:54;;;;;;;4.20;1.38;;;;;;;24.83;35.36;102657.53;4956621;28;20043;-74
2022/07/17 10:22:20;;;;;;;2.53;1.35;;;;;;;24.95;35.80;102650.84;4973214;28;20361;-74
2022/07/17 10:25:04;;;;;;;7.45;1.50;;;;;;;25.09;35.04;102651.22;4973963;28;20085;-74
2022/07/17 10:27:30;;;;;;;2.95;1.20;;;;;;;24.87;36.05;102652.66;4973028;28;20391;-72
2022/07/17 10:30:08;;;;;;;4.88;1.30;;;;;;;24.84;37.09;102656.53;4975459;28;20026;-72
2022/07/17 10:32:34;;;;;;;5.40;1.55;;;;;;;24.86;35.99;102659.91;4973658;28;20022;-73
2022/07/17 10:35:04;;;;;;;2.97;1.40;;;;;;;24.96;36.53;102652.53;4973882;28;20041;-71
2022/07/17 10:37:35;;;;;;;4.75;1.45;;;;;;;25.28;36.92;102649.09;4966229;28;20105;-72
2022/07/17 10:40:05;;;;;;;6.53;1.50;;;;;;;25.21;36.07;102644.50;4955975;29;20071;-72
2022/07/17 10:42:44;;;;;;;4.57;1.50;;;;;;;25.45;39.08;102652.63;4936861;29;20480;-71
2022/07/17 10:45:11;;;;;;;2.70;1.42;;;;;;;25.52;35.99;102653.66;4956847;28;20054;-74
2022/07/17 10:47:49;;;;;;;6.75;1.55;;;;;;;25.48;37.67;102646.91;4955309;29;20291;-73
2022/07/17 10:50:20;;;;;;;3.10;1.50;;;;;;;25.11;35.40;102649.22;4955137;29;20031;-72
2022/07/17 10:53:04;;;;;;;4.38;1.50;;;;;;;25.37;37.35;102643.72;4954704;28;20059;-73
2022/07/17 10:55:30;;;;;;;3.38;1.40;;;;;;;25.56;35.65;102644.22;4953802;28;20059;-72
2022/07/17 10:57:58;;;;;;;5.18;1.67;;;;;;;25.63;35.12;102657.06;4969490;28;20046;-72
2022/07/17 11:00:24;;;;;;;4.28;1.50;;;;;;;25.86;34.48;102649.97;4972802;28;20565;-71
2022/07/17 11:02:49;;;;;;;4.10;1.40;;;;;;;25.86;34.34;102650.81;4956859;28;20026;-73
2022/07/17 11:05:18;;;;;;;7.53;1.73;;;;;;;25.76;34.10;102654.72;4973463;28;20323;-71
2022/07/17 11:07:58;;;;;;;5.78;1.70;;;;;;;25.79;36.68;102657.06;4973465;28;20038;-73
2022/07/17 11:10:27;;;;;;;5.90;1.90;;;;;;;25.61;36.61;102652.63;4971781;28;20023;-74
2022/07/17 11:12:54;;;;;;;5.88;2.40;;;;;;;25.59;36.22;102645.72;4973077;28;20456;-73
2022/07/17 11:15:20;;;;;;;7.03;1.92;;;;;;;25.60;36.65;102650.94;4955039;28;20023;-72
2022/07/17 11:17:47;;;;;;;5.28;1.65;;;;;;;25.68;36.75;102641.22;4972276;28;20030;-74
2022/07/17 11:20:13;;;;;;;5.18;1.73;;;;;;;25.75;37.23;102637.69;4972901;28;20077;-74
2022/07/17 11:22:39;;;;;;;9.20;1.95;;;;;;;25.89;36.92;102634.28;4972099;28;20031;-74